TimeCST,TemperatureF,Dew PointF,Humidity,Sea Level PressureIn,VisibilityMPH,Wind Direction,Wind SpeedMPH,Gust SpeedMPH,PrecipitationIn,Events,Conditions,WindDirDegrees,DateUTC
12:05 AM,48.2,44.6,87,30.21,7.0,NNW,10.4,18.4,N/A,,Overcast,340,2014-03-04 06:05:00
12:35 AM,46.4,44.6,93,30.18,4.0,NW,19.6,25.3,N/A,,Overcast,320,2014-03-04 06:35:00
12:55 AM,46.4,44.6,93,30.16,8.0,NNW,16.1,-,0.04,,Overcast,330,2014-03-04 06:55:00
1:15 AM,46.4,44.6,93,30.12,10.0,North,11.5,17.3,N/A,,Overcast,350,2014-03-04 07:15:00
1:35 AM,48.2,42.8,82,30.13,10.0,North,8.1,16.1,N/A,,Overcast,350,2014-03-04 07:35:00
1:40 AM,48.2,42.8,82,30.13,10.0,North,9.2,16.1,N/A,,Overcast,350,2014-03-04 07:40:00
2:15 AM,46.4,44.6,93,30.11,2.0,NNW,10.4,19.6,N/A,,Overcast,340,2014-03-04 08:15:00
2:20 AM,46.4,44.6,93,30.13,3.0,NNW,15.0,-,N/A,,Overcast,340,2014-03-04 08:20:00
2:55 AM,46.4,44.6,93,30.15,-9999.0,NW,21.9,28.8,0.11,,Unknown,320,2014-03-04 08:55:00
3:15 AM,46.4,42.8,87,30.15,10.0,NNW,24.2,29.9,N/A,,Overcast,330,2014-03-04 09:15:00
3:35 AM,44.6,42.8,93,30.12,10.0,NNW,17.3,28.8,N/A,,Overcast,330,2014-03-04 09:35:00
3:55 AM,44.6,41.0,87,30.10,10.0,NNW,15.0,21.9,N/A,,Overcast,340,2014-03-04 09:55:00
4:15 AM,44.6,41.0,87,30.09,10.0,North,16.1,-,N/A,,Overcast,350,2014-03-04 10:15:00
4:35 AM,44.6,41.0,87,30.10,10.0,NNW,12.7,20.7,N/A,,Overcast,340,2014-03-04 10:35:00
4:55 AM,44.6,41.0,87,30.08,10.0,North,13.8,24.2,N/A,,Overcast,360,2014-03-04 10:55:00
5:15 AM,46.4,41.0,81,30.10,10.0,North,12.7,21.9,N/A,,Overcast,360,2014-03-04 11:15:00
5:35 AM,46.4,41.0,81,30.12,10.0,North,11.5,19.6,N/A,,Overcast,350,2014-03-04 11:35:00
5:55 AM,46.4,41.0,81,30.12,10.0,NNW,12.7,20.7,N/A,,Overcast,340,2014-03-04 11:55:00
6:15 AM,48.2,41.0,76,30.13,10.0,North,11.5,18.4,N/A,,Overcast,10,2014-03-04 12:15:00
6:35 AM,50.0,41.0,71,30.12,10.0,NNE,9.2,23.0,N/A,,Overcast,20,2014-03-04 12:35:00
6:55 AM,51.8,44.6,76,30.12,10.0,North,6.9,17.3,N/A,,Overcast,360,2014-03-04 12:55:00
7:15 AM,51.8,44.6,76,30.13,10.0,NW,15.0,-,N/A,,Overcast,320,2014-03-04 13:15:00
7:35 AM,50.0,46.4,87,30.13,10.0,NW,19.6,-,N/A,,Overcast,320,2014-03-04 13:35:00
7:55 AM,48.2,44.6,87,30.13,10.0,NW,20.7,-,N/A,,Overcast,320,2014-03-04 13:55:00
8:15 AM,46.4,44.6,93,30.13,9.0,NW,18.4,-,N/A,,Overcast,320,2014-03-04 14:15:00
8:35 AM,46.4,44.6,93,30.14,9.0,NW,19.6,27.6,N/A,,Overcast,320,2014-03-04 14:35:00
8:55 AM,44.6,42.8,93,30.14,9.0,NNW,16.1,23.0,N/A,,Overcast,330,2014-03-04 14:55:00
9:15 AM,44.6,42.8,93,30.15,9.0,NNW,15.0,20.7,N/A,,Overcast,330,2014-03-04 15:15:00
9:35 AM,44.6,42.8,93,30.15,10.0,NNW,15.0,23.0,N/A,,Overcast,330,2014-03-04 15:35:00
9:55 AM,46.4,42.8,87,30.16,10.0,NNW,10.4,19.6,N/A,,Overcast,340,2014-03-04 15:55:00
10:15 AM,46.4,44.6,93,30.16,10.0,NNW,13.8,-,N/A,,Overcast,330,2014-03-04 16:15:00
10:35 AM,46.4,42.8,87,30.16,10.0,NNW,13.8,-,N/A,,Overcast,330,2014-03-04 16:35:00
10:55 AM,46.4,44.6,93,30.16,8.0,NNW,11.5,18.4,N/A,,Overcast,340,2014-03-04 16:55:00
11:15 AM,46.4,44.6,93,30.16,10.0,NNW,13.8,20.7,N/A,,Overcast,340,2014-03-04 17:15:00
11:35 AM,46.4,44.6,93,30.15,8.0,NNW,10.4,16.1,N/A,,Overcast,340,2014-03-04 17:35:00
11:55 AM,48.2,46.4,93,30.14,9.0,NNW,12.7,-,N/A,,Mostly Cloudy,330,2014-03-04 17:55:00
12:15 PM,48.2,44.6,87,30.14,7.0,NNW,11.5,18.4,N/A,,Mostly Cloudy,330,2014-03-04 18:15:00
12:35 PM,48.2,46.4,93,30.13,8.0,NNW,9.2,-,N/A,,Mostly Cloudy,340,2014-03-04 18:35:00
12:55 PM,48.2,46.4,93,30.12,4.0,NNW,12.7,-,0.01,,Mostly Cloudy,330,2014-03-04 18:55:00
1:15 PM,48.2,46.4,93,30.11,10.0,NNW,11.5,19.6,N/A,,Mostly Cloudy,330,2014-03-04 19:15:00
1:35 PM,48.2,46.4,93,30.10,10.0,NNW,13.8,-,N/A,,Overcast,330,2014-03-04 19:35:00
1:55 PM,48.2,46.4,93,30.08,10.0,NNW,10.4,-,0.01,,Overcast,340,2014-03-04 19:55:00
2:15 PM,48.2,46.4,93,30.07,10.0,NNW,11.5,-,N/A,,Overcast,340,2014-03-04 20:15:00
2:35 PM,48.2,46.4,93,30.06,10.0,NNW,9.2,16.1,N/A,,Overcast,340,2014-03-04 20:35:00
2:55 PM,50.0,46.4,87,30.05,10.0,NNW,9.2,-,N/A,,Overcast,340,2014-03-04 20:55:00
3:15 PM,50.0,46.4,87,30.04,10.0,NNW,10.4,-,N/A,,Overcast,340,2014-03-04 21:15:00
3:35 PM,50.0,46.4,87,30.04,10.0,North,6.9,-,N/A,,Overcast,350,2014-03-04 21:35:00
3:55 PM,50.0,46.4,87,30.04,10.0,NNW,8.1,15.0,N/A,,Overcast,340,2014-03-04 21:55:00
4:15 PM,50.0,46.4,87,30.04,10.0,Variable,6.9,12.7,N/A,,Overcast,0,2014-03-04 22:15:00
4:35 PM,50.0,46.4,87,30.04,10.0,NNW,8.1,13.8,N/A,,Overcast,340,2014-03-04 22:35:00
4:55 PM,50.0,46.4,87,30.03,10.0,NNW,9.2,-,N/A,,Overcast,340,2014-03-04 22:55:00
5:15 PM,50.0,48.2,94,30.04,10.0,NNW,8.1,-,N/A,,Overcast,340,2014-03-04 23:15:00
5:35 PM,50.0,48.2,94,30.04,10.0,North,8.1,-,N/A,,Overcast,350,2014-03-04 23:35:00
5:55 PM,50.0,48.2,94,30.03,10.0,NNW,8.1,-,N/A,,Overcast,340,2014-03-04 23:55:00
6:15 PM,50.0,48.2,94,30.04,10.0,North,8.1,-,N/A,,Overcast,350,2014-03-05 00:15:00
6:35 PM,50.0,48.2,94,30.03,10.0,North,8.1,16.1,N/A,,Overcast,350,2014-03-05 00:35:00
6:55 PM,51.8,48.2,88,30.03,10.0,North,6.9,-,N/A,,Overcast,350,2014-03-05 00:55:00
7:15 PM,51.8,50.0,94,30.03,10.0,North,9.2,-,N/A,,Overcast,360,2014-03-05 01:15:00
7:35 PM,51.8,50.0,94,30.03,10.0,North,8.1,13.8,N/A,,Overcast,360,2014-03-05 01:35:00
7:55 PM,51.8,50.0,94,30.03,10.0,North,8.1,-,N/A,,Overcast,350,2014-03-05 01:55:00
8:15 PM,51.8,50.0,94,30.03,10.0,North,8.1,-,N/A,,Overcast,350,2014-03-05 02:15:00
8:35 PM,53.6,50.0,88,30.03,10.0,North,8.1,-,N/A,,Overcast,360,2014-03-05 02:35:00
8:55 PM,53.6,50.0,88,30.03,10.0,North,6.9,-,N/A,,Overcast,360,2014-03-05 02:55:00
9:15 PM,53.6,50.0,88,30.03,10.0,North,8.1,-,N/A,,Overcast,10,2014-03-05 03:15:00
9:35 PM,53.6,50.0,88,30.04,10.0,Variable,4.6,11.5,N/A,,Overcast,0,2014-03-05 03:35:00
9:55 PM,53.6,50.0,88,30.04,10.0,NNW,5.8,-,N/A,,Overcast,340,2014-03-05 03:55:00
10:15 PM,53.6,50.0,88,30.04,10.0,North,5.8,-,N/A,,Overcast,350,2014-03-05 04:15:00
10:35 PM,55.4,50.0,82,30.04,10.0,Variable,4.6,-,N/A,,Overcast,0,2014-03-05 04:35:00
10:55 PM,55.4,51.8,88,30.03,10.0,North,5.8,-,N/A,,Overcast,360,2014-03-05 04:55:00
11:15 PM,55.4,51.8,88,30.03,10.0,Variable,4.6,-,N/A,,Overcast,0,2014-03-05 05:15:00
11:35 PM,55.4,51.8,88,30.02,10.0,North,4.6,-,N/A,,Overcast,350,2014-03-05 05:35:00
11:55 PM,55.4,51.8,88,30.01,10.0,North,6.9,-,N/A,,Overcast,350,2014-03-05 05:55:00